Airfield :
LOGIN :

Register | Disclaimer

   EN    FR    IT 

 










Legend :    VFR   Marginal VFR   IFR   Intensive IFR   Very Intensive IFR
Visi :
Ceiling :
>= 8 km
>= 3000ft
5 to 8 km
1000 to 3000 ft
1500m to 5 km
500 to 1000 ft
800 to 1500m
200 to 500 ft
< 800m
< 200 ft
Symbols :   Thunderstorms  Fog  Heavy snow  Heavy precipitations  Wind > 20 kt
SIGMETs :     Misc.  Thunderstorms  Icing  Turbulence  Mountain Waves  Volcanic Ashes







- Airport Elevation : 1325 ft
- IATA code : EBU
- Download approach charts


LFMH - St-Etienne Boutheon

CURRENT METAR :
  • 260900Z AUTO 34009KT 300V010 9999 FEW026 13/06 Q1022 NOSIG

EXPIRED METARs :
  • 260830Z AUTO 01010KT 340V040 9999 BKN023 13/05 Q1022 NOSIG
  • 260800Z AUTO 36010KT 9999 SCT023 12/05 Q1022 NOSIG
  • 260730Z AUTO 35010KT 310V010 9999 FEW020 12/05 Q1022 NOSIG
  • 260700Z AUTO 35007KT 300V020 9999 SCT047 12/06 Q1022 NOSIG
  • 260630Z AUTO 01007KT 340V040 CAVOK 11/06 Q1022 NOSIG

TAF TAF LFMH
Valid from the 26 at 09:00 until the 27 at 09:00 UTC


260800Z 2609/2709 36010KT 9999 SCT030
TEMPO 2617/2624 CAVOK
PROB30
TEMPO 2703/2706 VRB02KT FEW010
ATIS : +33 4 77 36 17 51
No reported NOTAMs for that airfield.



MET'MAP, your aeronautical weather chart ! - Copyright ORBIFLY December 2007 - Disclaimer

ORBIFLY MET'MAP TEAM :

Programming & Development : Alexandra Zaïnal
Concept & Development : Baudouin d'Aumeries
Co-Development & Prog : Marc-Olivier Méhu
Technical & hardware support : Manuel Goepfert

Contact : metmap@orbifly.com




SOURCES & CREDITS :

   NOAA